Allenton, Michigan
Current Conditions -  °F | °C
As of 11:34 PM on Saturday 25 Oct 2014 (Local Time) from KD95 Reporting Station
Clear Clear  
Wind Chill: 51°   Ceiling: Unl
Heat Index: 51°   Visibility: 10mi
Dew Point: 32°   Wind: 8mph
Humidity: 47%   Direction: 300°WNW
Pressure: 29.8"   Gusts: NA
Location:  42.92°N, 82.95°W
Report Text: KD95 260334Z AUTO 30007KT 10SM CLR 11/00 A2980 RMK AO2 T01080000
Loading
Personal Weather Stations






























Interactive Weather Map
Tropical Storm Tracking
New forecast layout! Learn more

10-Day Weather Forecast

Advertisements
Track Severe Weather on mobile